Boston, MA

1:58 PM EST on December 10, 2016 (GMT -0500)
Cambridge, Charles River | | Change Station

Elev 36 ft 42.36 °N, 71.08 °W | Updated 15 seconds ago

Partly Cloudy
Partly Cloudy
34.0 °F
Feels Like 34 °F
N
0.2
Wind Variable Wind from WSW
Gusts 2.5 mph

Today
High -- | Low -- °F
--% Chance of Precip.
Yesterday
High -- | Low -- °F
Precip. -- in
Pressure 30.26 in
Visibility 10.0 miles
Clouds Few 4200 ft
Few 22000 ft
Windchill 34 °F
Dew Point 2 °F
Humidity 25%
Rainfall 0.00 in
Snow Depth Not available.
7:02 AM 4:11 PM
Waxing Gibbous, 85% visible
METAR KBOS 101854Z 27011G18KT 10SM FEW042 FEW220 M02/M16 A3026 RMK AO2 SLP246 T10171156
Pressure 30.26 in
Visibility 10.0 miles
Clouds Few 4200 ft
Few 22000 ft
Windchill 34 °F
Dew Point 2 °F
Humidity 25%
Rainfall 0.00 in
Snow Depth Not available.
7:02 AM 4:11 PM
Waxing Gibbous, 85% visible
METAR KBOS 101854Z 27011G18KT 10SM FEW042 FEW220 M02/M16 A3026 RMK AO2 SLP246 T10171156

10-Day Weather Forecast

Almanac

Astronomy

Dec. 10, 2016 Rise Set
Actual Time
Civil Twilight
Nautical Twilight
Astronomical Twilight
Moon
Length of Visible Light
Length of Day
Tomorrow will be .
, % of the Moon is Illuminated

Today's Extremes

State Highs State Lows

Community

WunderPhotos

Upload Photos

1,956,620 photos uploaded!

WunderBlog® & News

Nearby

Air Quality

  Air Quality AQ Index Pollutant
Not available.

Snow Depth

Station Depth Elevation

Earthquake Activity

City Distance Mag. Time & Date
Minimum magnitude displayed is 2.5.

Coastal Water Temperatures

Place Temperature

Stations

Nearby Weather Stations

Station Location Temp. Windchill Dew Point Humidity Wind Precip. Elev Updated Type
                   

Watches & Warnings

There are currently no watches in effect.